Terminal Aerodrome Forecast
Issued by NWS

Home | Current Version | Previous Version | Text Only | Print | Product List | Glossary On
Versions: 1 2 3 4 5 6 7 8 9 10 11 12 13 14 15 16 17 18 19 20 21 22 23 24 25 26
000
FTUS42 KCAE 231900 AAA
TAFOGB
TAF AMD
KOGB 231924Z 2319/2418 14008G20KT 3SM -RA BR BKN007 WS020/20045KT
      TEMPO 2323/2403 1SM -TSRA BR BKN008CB
     FM240400 20010G20KT 5SM -SHRA BR OVC008
     FM241500 23014G24KT P6SM SCT015 BKN035=

USA.gov is the U.S. government's official web portal to all federal, state and local government web resources and services.